sensor_id;sensor_type;location;lat;lon;timestamp;pressure;altitude;pressure_sealevel;temperature;humidity
48926;BME280;39838;59.938;30.642;2023-01-25T00:02:03;101797.66;;;-0.03;90.95
48926;BME280;39838;59.938;30.642;2023-01-25T00:04:30;101796.66;;;-0.05;91.13
48926;BME280;39838;59.938;30.642;2023-01-25T00:06:57;101789.69;;;-0.08;91.29
48926;BME280;39838;59.938;30.642;2023-01-25T00:09:25;101782.91;;;-0.07;91.13
48926;BME280;39838;59.938;30.642;2023-01-25T00:11:52;101783.03;;;-0.06;91.32
48926;BME280;39838;59.938;30.642;2023-01-25T00:14:21;101784.97;;;-0.02;91.04
48926;BME280;39838;59.938;30.642;2023-01-25T00:16:48;101777.41;;;0.00;91.34
48926;BME280;39838;59.938;30.642;2023-01-25T00:19:17;101770.72;;;0.02;90.93
48926;BME280;39838;59.938;30.642;2023-01-25T00:21:44;101754.41;;;0.00;91.15
48926;BME280;39838;59.938;30.642;2023-01-25T00:24:12;101764.91;;;0.05;91.14
48926;BME280;39838;59.938;30.642;2023-01-25T00:26:40;101769.03;;;0.03;90.85
48926;BME280;39838;59.938;30.642;2023-01-25T00:29:10;101732.41;;;-0.11;90.82
48926;BME280;39838;59.938;30.642;2023-01-25T00:31:49;101755.47;;;0.04;90.83
48926;BME280;39838;59.938;30.642;2023-01-25T00:34:37;101756.19;;;0.01;90.45
48926;BME280;39838;59.938;30.642;2023-01-25T00:37:19;101713.06;;;-0.21;90.48
48926;BME280;39838;59.938;30.642;2023-01-25T00:39:49;101756.06;;;-0.01;89.79
48926;BME280;39838;59.938;30.642;2023-01-25T00:42:17;101748.22;;;-0.04;90.23
48926;BME280;39838;59.938;30.642;2023-01-25T00:44:45;101749.81;;;-0.06;90.17
48926;BME280;39838;59.938;30.642;2023-01-25T00:47:13;101741.25;;;-0.06;90.21
48926;BME280;39838;59.938;30.642;2023-01-25T00:49:42;101736.81;;;-0.09;89.91
48926;BME280;39838;59.938;30.642;2023-01-25T00:52:10;101724.34;;;-0.04;90.08
48926;BME280;39838;59.938;30.642;2023-01-25T00:54:37;101727.19;;;0.01;89.40
48926;BME280;39838;59.938;30.642;2023-01-25T00:57:05;101720.81;;;-0.06;89.50
48926;BME280;39838;59.938;30.642;2023-01-25T00:59:33;101716.19;;;-0.12;89.37
48926;BME280;39838;59.938;30.642;2023-01-25T01:02:00;101723.78;;;-0.13;89.17
48926;BME280;39838;59.938;30.642;2023-01-25T01:04:28;101729.78;;;-0.13;89.29
48926;BME280;39838;59.938;30.642;2023-01-25T01:06:57;101733.09;;;-0.14;89.41
48926;BME280;39838;59.938;30.642;2023-01-25T01:09:24;101723.97;;;-0.10;89.54
48926;BME280;39838;59.938;30.642;2023-01-25T01:11:52;101719.72;;;-0.10;89.21
48926;BME280;39838;59.938;30.642;2023-01-25T01:14:20;101707.91;;;-0.08;88.89
48926;BME280;39838;59.938;30.642;2023-01-25T01:16:47;101696.03;;;-0.07;88.63
48926;BME280;39838;59.938;30.642;2023-01-25T01:19:15;101701.13;;;-0.07;88.64
48926;BME280;39838;59.938;30.642;2023-01-25T01:21:42;101689.94;;;-0.09;88.93
48926;BME280;39838;59.938;30.642;2023-01-25T01:24:10;101695.84;;;-0.10;88.79
48926;BME280;39838;59.938;30.642;2023-01-25T01:26:37;101690.84;;;-0.09;88.88
48926;BME280;39838;59.938;30.642;2023-01-25T01:29:05;101692.34;;;-0.12;88.33
48926;BME280;39838;59.938;30.642;2023-01-25T01:31:32;101693.00;;;-0.15;88.68
48926;BME280;39838;59.938;30.642;2023-01-25T01:33:59;101696.34;;;-0.16;88.49
48926;BME280;39838;59.938;30.642;2023-01-25T01:36:28;101699.53;;;-0.20;88.41
48926;BME280;39838;59.938;30.642;2023-01-25T01:38:57;101699.13;;;-0.26;88.33
48926;BME280;39838;59.938;30.642;2023-01-25T01:41:26;101697.47;;;-0.25;88.73
48926;BME280;39838;59.938;30.642;2023-01-25T01:43:53;101691.09;;;-0.32;88.92
48926;BME280;39838;59.938;30.642;2023-01-25T01:46:28;101685.97;;;-0.32;88.92
48926;BME280;39838;59.938;30.642;2023-01-25T01:49:01;101678.59;;;-0.28;89.05
48926;BME280;39838;59.938;30.642;2023-01-25T01:51:41;101674.56;;;-0.24;88.95
48926;BME280;39838;59.938;30.642;2023-01-25T01:54:12;101655.97;;;-0.21;88.73
48926;BME280;39838;59.938;30.642;2023-01-25T01:56:47;101644.88;;;-0.22;89.03
48926;BME280;39838;59.938;30.642;2023-01-25T01:59:17;101644.72;;;-0.25;88.95
48926;BME280;39838;59.938;30.642;2023-01-25T02:01:45;101631.94;;;-0.25;88.48
48926;BME280;39838;59.938;30.642;2023-01-25T02:04:13;101633.88;;;-0.21;88.71
48926;BME280;39838;59.938;30.642;2023-01-25T02:06:46;101617.88;;;-0.18;88.63
48926;BME280;39838;59.938;30.642;2023-01-25T02:09:17;101609.06;;;-0.09;88.70
48926;BME280;39838;59.938;30.642;2023-01-25T02:11:46;101604.75;;;-0.10;88.58
48926;BME280;39838;59.938;30.642;2023-01-25T02:14:16;101602.03;;;-0.13;88.32
48926;BME280;39838;59.938;30.642;2023-01-25T02:16:43;101597.09;;;-0.10;88.15
48926;BME280;39838;59.938;30.642;2023-01-25T02:19:15;101576.72;;;-0.23;88.26
48926;BME280;39838;59.938;30.642;2023-01-25T02:21:46;101562.00;;;-0.27;88.22
48926;BME280;39838;59.938;30.642;2023-01-25T02:24:19;101583.28;;;-0.13;88.33
48926;BME280;39838;59.938;30.642;2023-01-25T02:26:48;101579.13;;;-0.11;87.99
48926;BME280;39838;59.938;30.642;2023-01-25T02:29:16;101560.69;;;-0.20;87.79
48926;BME280;39838;59.938;30.642;2023-01-25T02:31:45;101562.56;;;-0.18;87.71
48926;BME280;39838;59.938;30.642;2023-01-25T02:34:14;101571.09;;;-0.17;87.88
48926;BME280;39838;59.938;30.642;2023-01-25T02:36:41;101571.91;;;-0.18;87.77
48926;BME280;39838;59.938;30.642;2023-01-25T02:39:12;101542.97;;;-0.32;87.56
48926;BME280;39838;59.938;30.642;2023-01-25T02:41:43;101564.31;;;-0.17;87.53
48926;BME280;39838;59.938;30.642;2023-01-25T02:44:15;101554.09;;;-0.17;87.49
48926;BME280;39838;59.938;30.642;2023-01-25T02:46:43;101548.19;;;-0.16;87.78
48926;BME280;39838;59.938;30.642;2023-01-25T02:49:11;101553.50;;;-0.13;87.33
48926;BME280;39838;59.938;30.642;2023-01-25T02:51:40;101547.31;;;-0.16;87.26
48926;BME280;39838;59.938;30.642;2023-01-25T02:54:08;101542.53;;;-0.25;87.00
48926;BME280;39838;59.938;30.642;2023-01-25T02:56:36;101557.44;;;-0.18;87.25
48926;BME280;39838;59.938;30.642;2023-01-25T02:59:05;101548.63;;;-0.23;87.28
48926;BME280;39838;59.938;30.642;2023-01-25T03:01:35;101556.78;;;-0.29;87.54
48926;BME280;39838;59.938;30.642;2023-01-25T03:04:03;101547.19;;;-0.33;87.65
48926;BME280;39838;59.938;30.642;2023-01-25T03:06:31;101553.69;;;-0.38;87.55
48926;BME280;39838;59.938;30.642;2023-01-25T03:08:58;101553.81;;;-0.49;87.58
48926;BME280;39838;59.938;30.642;2023-01-25T03:11:26;101554.53;;;-0.52;88.00
48926;BME280;39838;59.938;30.642;2023-01-25T03:13:53;101549.22;;;-0.55;87.86
48926;BME280;39838;59.938;30.642;2023-01-25T03:16:20;101554.84;;;-0.61;88.04
48926;BME280;39838;59.938;30.642;2023-01-25T03:18:51;101555.72;;;-0.60;88.16
48926;BME280;39838;59.938;30.642;2023-01-25T03:21:20;101560.53;;;-0.65;88.12
48926;BME280;39838;59.938;30.642;2023-01-25T03:23:53;101566.44;;;-0.66;88.77
48926;BME280;39838;59.938;30.642;2023-01-25T03:26:21;101549.16;;;-0.70;88.75
48926;BME280;39838;59.938;30.642;2023-01-25T03:28:49;101561.44;;;-0.64;88.49
48926;BME280;39838;59.938;30.642;2023-01-25T03:31:16;101548.38;;;-0.69;88.40
48926;BME280;39838;59.938;30.642;2023-01-25T03:33:44;101558.59;;;-0.69;88.52
48926;BME280;39838;59.938;30.642;2023-01-25T03:36:13;101553.47;;;-0.69;88.79
48926;BME280;39838;59.938;30.642;2023-01-25T03:38:40;101548.38;;;-0.69;88.50
48926;BME280;39838;59.938;30.642;2023-01-25T03:41:07;101550.91;;;-0.69;88.44
48926;BME280;39838;59.938;30.642;2023-01-25T03:43:34;101549.16;;;-0.70;88.47
48926;BME280;39838;59.938;30.642;2023-01-25T03:46:02;101550.75;;;-0.72;88.86
48926;BME280;39838;59.938;30.642;2023-01-25T03:48:29;101542.47;;;-0.68;89.07
48926;BME280;39838;59.938;30.642;2023-01-25T03:50:58;101529.63;;;-0.69;89.00
48926;BME280;39838;59.938;30.642;2023-01-25T03:53:27;101534.94;;;-0.66;88.98
48926;BME280;39838;59.938;30.642;2023-01-25T03:55:56;101535.03;;;-0.65;88.61
48926;BME280;39838;59.938;30.642;2023-01-25T03:58:24;101507.53;;;-0.69;89.15
48926;BME280;39838;59.938;30.642;2023-01-25T04:00:54;101502.44;;;-0.69;89.04
48926;BME280;39838;59.938;30.642;2023-01-25T04:03:21;101495.78;;;-0.67;89.20
48926;BME280;39838;59.938;30.642;2023-01-25T04:05:50;101484.06;;;-0.63;89.08
48926;BME280;39838;59.938;30.642;2023-01-25T04:08:17;101463.25;;;-0.69;89.02
48926;BME280;39838;59.938;30.642;2023-01-25T04:10:50;101464.72;;;-0.60;89.33
48926;BME280;39838;59.938;30.642;2023-01-25T04:13:18;101460.94;;;-0.51;89.17
48926;BME280;39838;59.938;30.642;2023-01-25T04:15:46;101454.16;;;-0.51;88.65
48926;BME280;39838;59.938;30.642;2023-01-25T04:18:14;101428.00;;;-0.62;88.59
48926;BME280;39838;59.938;30.642;2023-01-25T04:20:41;101439.56;;;-0.53;89.06
48926;BME280;39838;59.938;30.642;2023-01-25T04:23:08;101429.25;;;-0.55;88.72
48926;BME280;39838;59.938;30.642;2023-01-25T04:25:36;101420.81;;;-0.54;88.73
48926;BME280;39838;59.938;30.642;2023-01-25T04:28:05;101417.56;;;-0.51;88.81
48926;BME280;39838;59.938;30.642;2023-01-25T04:30:32;101405.59;;;-0.52;89.21
48926;BME280;39838;59.938;30.642;2023-01-25T04:33:02;101417.56;;;-0.51;88.82
48926;BME280;39838;59.938;30.642;2023-01-25T04:35:29;101415.28;;;-0.47;88.98
48926;BME280;39838;59.938;30.642;2023-01-25T04:37:57;101416.25;;;-0.45;88.85
48926;BME280;39838;59.938;30.642;2023-01-25T04:40:25;101418.06;;;-0.42;88.89
48926;BME280;39838;59.938;30.642;2023-01-25T04:42:52;101414.72;;;-0.41;88.46
48926;BME280;39838;59.938;30.642;2023-01-25T04:45:21;101406.38;;;-0.39;87.99
48926;BME280;39838;59.938;30.642;2023-01-25T04:47:48;101414.66;;;-0.43;88.27
48926;BME280;39838;59.938;30.642;2023-01-25T04:50:15;101410.50;;;-0.41;88.45
48926;BME280;39838;59.938;30.642;2023-01-25T04:52:42;101411.41;;;-0.40;87.91
48926;BME280;39838;59.938;30.642;2023-01-25T04:55:10;101410.25;;;-0.45;87.97
48926;BME280;39838;59.938;30.642;2023-01-25T04:57:37;101395.72;;;-0.46;88.07
48926;BME280;39838;59.938;30.642;2023-01-25T05:00:05;101390.50;;;-0.48;88.18
48926;BME280;39838;59.938;30.642;2023-01-25T05:02:34;101372.19;;;-0.41;88.28
48926;BME280;39838;59.938;30.642;2023-01-25T05:05:01;101363.94;;;-0.37;88.23
48926;BME280;39838;59.938;30.642;2023-01-25T05:07:29;101360.50;;;-0.37;87.81
48926;BME280;39838;59.938;30.642;2023-01-25T05:09:56;101364.03;;;-0.35;87.56
48926;BME280;39838;59.938;30.642;2023-01-25T05:12:23;101366.50;;;-0.37;87.70
48926;BME280;39838;59.938;30.642;2023-01-25T05:14:50;101347.81;;;-0.36;87.90
48926;BME280;39838;59.938;30.642;2023-01-25T05:17:18;101352.94;;;-0.36;87.65
48926;BME280;39838;59.938;30.642;2023-01-25T05:19:46;101336.72;;;-0.36;87.81
48926;BME280;39838;59.938;30.642;2023-01-25T05:22:14;101327.41;;;-0.36;87.75
48926;BME280;39838;59.938;30.642;2023-01-25T05:24:42;101326.50;;;-0.36;87.60
48926;BME280;39838;59.938;30.642;2023-01-25T05:27:11;101343.88;;;-0.31;87.80
48926;BME280;39838;59.938;30.642;2023-01-25T05:29:39;101336.94;;;-0.33;86.93
48926;BME280;39838;59.938;30.642;2023-01-25T05:32:07;101337.38;;;-0.40;87.21
48926;BME280;39838;59.938;30.642;2023-01-25T05:34:35;101341.84;;;-0.36;87.07
48926;BME280;39838;59.938;30.642;2023-01-25T05:37:06;101341.56;;;-0.41;87.18
48926;BME280;39838;59.938;30.642;2023-01-25T05:39:33;101325.47;;;-0.40;87.14
48926;BME280;39838;59.938;30.642;2023-01-25T05:42:00;101321.13;;;-0.41;87.03
48926;BME280;39838;59.938;30.642;2023-01-25T05:44:27;101318.94;;;-0.49;87.02
48926;BME280;39838;59.938;30.642;2023-01-25T05:46:54;101334.25;;;-0.49;87.16
48926;BME280;39838;59.938;30.642;2023-01-25T05:49:22;101335.84;;;-0.51;86.93
48926;BME280;39838;59.938;30.642;2023-01-25T05:51:49;101330.56;;;-0.55;86.99
48926;BME280;39838;59.938;30.642;2023-01-25T05:54:17;101336.22;;;-0.60;87.23
48926;BME280;39838;59.938;30.642;2023-01-25T05:56:47;101327.69;;;-0.61;87.40
48926;BME280;39838;59.938;30.642;2023-01-25T05:59:15;101326.97;;;-0.58;86.98
48926;BME280;39838;59.938;30.642;2023-01-25T06:01:44;101325.38;;;-0.56;87.41
48926;BME280;39838;59.938;30.642;2023-01-25T06:04:12;101324.41;;;-0.58;87.19
48926;BME280;39838;59.938;30.642;2023-01-25T06:06:40;101328.81;;;-0.56;87.35
48926;BME280;39838;59.938;30.642;2023-01-25T06:09:09;101313.50;;;-0.56;86.71
48926;BME280;39838;59.938;30.642;2023-01-25T06:11:37;101297.75;;;-0.63;87.05
48926;BME280;39838;59.938;30.642;2023-01-25T06:14:05;101314.19;;;-0.58;87.33
48926;BME280;39838;59.938;30.642;2023-01-25T06:16:32;101309.69;;;-0.62;87.03
48926;BME280;39838;59.938;30.642;2023-01-25T06:18:59;101300.28;;;-0.63;87.43
48926;BME280;39838;59.938;30.642;2023-01-25T06:21:26;101307.16;;;-0.62;87.61
48926;BME280;39838;59.938;30.642;2023-01-25T06:23:53;101288.59;;;-0.60;87.70
48926;BME280;39838;59.938;30.642;2023-01-25T06:26:20;101305.59;;;-0.60;87.62
48926;BME280;39838;59.938;30.642;2023-01-25T06:28:49;101291.84;;;-0.62;87.88
48926;BME280;39838;59.938;30.642;2023-01-25T06:31:16;101271.34;;;-0.64;87.62
48926;BME280;39838;59.938;30.642;2023-01-25T06:33:48;101277.25;;;-0.65;87.48
48926;BME280;39838;59.938;30.642;2023-01-25T06:36:17;101272.84;;;-0.67;87.81
48926;BME280;39838;59.938;30.642;2023-01-25T06:38:47;101275.66;;;-0.63;87.96
48926;BME280;39838;59.938;30.642;2023-01-25T06:41:15;101267.53;;;-0.56;87.97
48926;BME280;39838;59.938;30.642;2023-01-25T06:43:42;101263.44;;;-0.53;88.22
48926;BME280;39838;59.938;30.642;2023-01-25T06:46:11;101265.00;;;-0.56;88.05
48926;BME280;39838;59.938;30.642;2023-01-25T06:48:38;101266.66;;;-0.56;88.70
48926;BME280;39838;59.938;30.642;2023-01-25T06:51:08;101273.78;;;-0.50;88.94
48926;BME280;39838;59.938;30.642;2023-01-25T06:53:38;101255.50;;;-0.58;88.50
48926;BME280;39838;59.938;30.642;2023-01-25T06:56:07;101251.53;;;-0.53;89.05
48926;BME280;39838;59.938;30.642;2023-01-25T06:58:35;101248.34;;;-0.49;89.15
48926;BME280;39838;59.938;30.642;2023-01-25T07:01:04;101256.28;;;-0.44;89.29
48926;BME280;39838;59.938;30.642;2023-01-25T07:03:33;101247.19;;;-0.39;89.16
48926;BME280;39838;59.938;30.642;2023-01-25T07:06:02;101231.88;;;-0.39;88.95
48926;BME280;39838;59.938;30.642;2023-01-25T07:08:30;101227.88;;;-0.34;89.06
48926;BME280;39838;59.938;30.642;2023-01-25T07:10:59;101216.25;;;-0.29;89.21
48926;BME280;39838;59.938;30.642;2023-01-25T07:13:27;101207.78;;;-0.28;89.18
48926;BME280;39838;59.938;30.642;2023-01-25T07:15:55;101207.97;;;-0.25;89.52
48926;BME280;39838;59.938;30.642;2023-01-25T07:18:23;101201.53;;;-0.18;89.48
48926;BME280;39838;59.938;30.642;2023-01-25T07:20:52;101210.22;;;-0.15;89.05
48926;BME280;39838;59.938;30.642;2023-01-25T07:23:19;101202.91;;;-0.09;89.50
48926;BME280;39838;59.938;30.642;2023-01-25T07:25:47;101191.41;;;-0.01;89.36
48926;BME280;39838;59.938;30.642;2023-01-25T07:28:16;101176.31;;;0.04;89.45
48926;BME280;39838;59.938;30.642;2023-01-25T07:30:44;101170.66;;;0.10;89.22
48926;BME280;39838;59.938;30.642;2023-01-25T07:33:11;101161.66;;;0.16;89.10
48926;BME280;39838;59.938;30.642;2023-01-25T07:35:38;101173.69;;;0.19;88.56
48926;BME280;39838;59.938;30.642;2023-01-25T07:38:07;101168.91;;;0.25;88.57
48926;BME280;39838;59.938;30.642;2023-01-25T07:40:34;101159.06;;;0.33;88.87
48926;BME280;39838;59.938;30.642;2023-01-25T07:43:01;101166.03;;;0.35;88.07
48926;BME280;39838;59.938;30.642;2023-01-25T07:45:29;101163.00;;;0.42;88.29
48926;BME280;39838;59.938;30.642;2023-01-25T07:47:57;101163.22;;;0.47;87.73
48926;BME280;39838;59.938;30.642;2023-01-25T07:50:27;101161.63;;;0.49;87.48
48926;BME280;39838;59.938;30.642;2023-01-25T07:52:54;101159.28;;;0.53;87.17
48926;BME280;39838;59.938;30.642;2023-01-25T07:55:25;101138.69;;;0.50;87.19
48926;BME280;39838;59.938;30.642;2023-01-25T07:57:53;101149.72;;;0.49;86.95
48926;BME280;39838;59.938;30.642;2023-01-25T08:00:21;101152.28;;;0.49;86.48
48926;BME280;39838;59.938;30.642;2023-01-25T08:02:49;101152.09;;;0.46;86.38
48926;BME280;39838;59.938;30.642;2023-01-25T08:05:16;101143.97;;;0.37;86.04
48926;BME280;39838;59.938;30.642;2023-01-25T08:07:44;101140.31;;;0.32;86.70
48926;BME280;39838;59.938;30.642;2023-01-25T08:10:11;101141.53;;;0.22;86.46
48926;BME280;39838;59.938;30.642;2023-01-25T08:12:43;101107.28;;;0.03;86.62
48926;BME280;39838;59.938;30.642;2023-01-25T08:15:11;101127.69;;;0.19;86.45
48926;BME280;39838;59.938;30.642;2023-01-25T08:17:38;101118.22;;;0.16;86.79
48926;BME280;39838;59.938;30.642;2023-01-25T08:20:07;101114.91;;;0.19;86.90
48926;BME280;39838;59.938;30.642;2023-01-25T08:22:34;101111.56;;;0.20;86.73
48926;BME280;39838;59.938;30.642;2023-01-25T08:25:02;101126.13;;;0.21;87.29
48926;BME280;39838;59.938;30.642;2023-01-25T08:27:29;101116.78;;;0.21;87.29
48926;BME280;39838;59.938;30.642;2023-01-25T08:29:58;101117.72;;;0.23;87.36
48926;BME280;39838;59.938;30.642;2023-01-25T08:32:25;101114.44;;;0.26;86.78
48926;BME280;39838;59.938;30.642;2023-01-25T08:34:52;101101.97;;;0.32;87.06
48926;BME280;39838;59.938;30.642;2023-01-25T08:37:19;101083.50;;;0.38;87.27
48926;BME280;39838;59.938;30.642;2023-01-25T08:39:47;101085.63;;;0.29;86.73
48926;BME280;39838;59.938;30.642;2023-01-25T08:42:14;101078.66;;;0.26;86.93
48926;BME280;39838;59.938;30.642;2023-01-25T08:44:41;101085.25;;;0.39;87.48
48926;BME280;39838;59.938;30.642;2023-01-25T08:47:09;101080.38;;;0.43;86.85
48926;BME280;39838;59.938;30.642;2023-01-25T08:49:36;101070.59;;;0.52;87.11
48926;BME280;39838;59.938;30.642;2023-01-25T08:52:04;101074.28;;;0.58;87.29
48926;BME280;39838;59.938;30.642;2023-01-25T08:54:31;101070.41;;;0.66;87.10
48926;BME280;39838;59.938;30.642;2023-01-25T08:56:59;101072.16;;;0.67;86.45
48926;BME280;39838;59.938;30.642;2023-01-25T08:59:27;101060.84;;;0.62;86.65
48926;BME280;39838;59.938;30.642;2023-01-25T09:01:54;101053.25;;;0.63;86.45
48926;BME280;39838;59.938;30.642;2023-01-25T09:04:22;101055.88;;;0.65;86.93
48926;BME280;39838;59.938;30.642;2023-01-25T09:06:53;101043.88;;;0.64;86.63
48926;BME280;39838;59.938;30.642;2023-01-25T09:09:20;101058.34;;;0.63;86.95
48926;BME280;39838;59.938;30.642;2023-01-25T09:11:49;101059.38;;;0.67;86.26
48926;BME280;39838;59.938;30.642;2023-01-25T09:14:16;101067.66;;;0.61;86.37
48926;BME280;39838;59.938;30.642;2023-01-25T09:16:43;101040.09;;;0.56;86.40
48926;BME280;39838;59.938;30.642;2023-01-25T09:19:10;101030.81;;;0.58;86.59
48926;BME280;39838;59.938;30.642;2023-01-25T09:21:39;101034.81;;;0.52;86.80
48926;BME280;39838;59.938;30.642;2023-01-25T09:24:06;101026.13;;;0.49;86.97
48926;BME280;39838;59.938;30.642;2023-01-25T09:26:35;101017.56;;;0.48;87.09
48926;BME280;39838;59.938;30.642;2023-01-25T09:29:02;101013.47;;;0.52;86.80
48926;BME280;39838;59.938;30.642;2023-01-25T09:31:30;101004.41;;;0.59;86.88
48926;BME280;39838;59.938;30.642;2023-01-25T09:33:57;101002.31;;;0.68;87.01
48926;BME280;39838;59.938;30.642;2023-01-25T09:36:24;101000.91;;;0.74;86.92
48926;BME280;39838;59.938;30.642;2023-01-25T09:38:54;100979.66;;;0.75;86.60
48926;BME280;39838;59.938;30.642;2023-01-25T09:41:33;100974.44;;;0.74;86.49
48926;BME280;39838;59.938;30.642;2023-01-25T09:44:15;100972.19;;;0.80;87.03
48926;BME280;39838;59.938;30.642;2023-01-25T09:46:48;100971.53;;;0.84;86.71
48926;BME280;39838;59.938;30.642;2023-01-25T09:49:41;100967.16;;;0.81;86.75
48926;BME280;39838;59.938;30.642;2023-01-25T09:52:26;100965.31;;;0.79;86.52
48926;BME280;39838;59.938;30.642;2023-01-25T09:55:00;100961.31;;;0.84;86.45
48926;BME280;39838;59.938;30.642;2023-01-25T09:57:32;100923.81;;;0.67;86.92
48926;BME280;39838;59.938;30.642;2023-01-25T10:00:03;100940.03;;;0.67;86.37
48926;BME280;39838;59.938;30.642;2023-01-25T10:02:38;100943.16;;;0.79;86.42
48926;BME280;39838;59.938;30.642;2023-01-25T10:05:12;100935.44;;;0.78;86.42
48926;BME280;39838;59.938;30.642;2023-01-25T10:07:52;100932.06;;;0.79;86.62
48926;BME280;39838;59.938;30.642;2023-01-25T10:10:27;100933.97;;;0.83;86.93
48926;BME280;39838;59.938;30.642;2023-01-25T10:12:55;100922.66;;;0.78;86.86
48926;BME280;39838;59.938;30.642;2023-01-25T10:15:26;100922.66;;;0.78;86.47
48926;BME280;39838;59.938;30.642;2023-01-25T10:17:58;100909.03;;;0.79;86.93
48926;BME280;39838;59.938;30.642;2023-01-25T10:20:32;100913.22;;;0.77;86.85
48926;BME280;39838;59.938;30.642;2023-01-25T10:23:30;100876.50;;;0.57;86.43
48926;BME280;39838;59.938;30.642;2023-01-25T10:26:04;100909.03;;;0.79;86.57
48926;BME280;39838;59.938;30.642;2023-01-25T10:28:40;100914.31;;;0.82;86.58
48926;BME280;39838;59.938;30.642;2023-01-25T10:31:16;100903.69;;;0.92;87.12
48926;BME280;39838;59.938;30.642;2023-01-25T10:33:46;100899.59;;;0.96;86.52
48926;BME280;39838;59.938;30.642;2023-01-25T10:36:15;100868.56;;;0.88;86.38
48926;BME280;39838;59.938;30.642;2023-01-25T10:38:44;100895.41;;;0.98;86.46
48926;BME280;39838;59.938;30.642;2023-01-25T10:41:17;100887.78;;;0.99;86.98
48926;BME280;39838;59.938;30.642;2023-01-25T10:43:45;100887.50;;;0.93;86.84
48926;BME280;39838;59.938;30.642;2023-01-25T10:46:33;100883.22;;;0.92;86.27
48926;BME280;39838;59.938;30.642;2023-01-25T10:49:06;100884.09;;;0.93;86.84
48926;BME280;39838;59.938;30.642;2023-01-25T10:51:41;100882.28;;;0.90;86.62
48926;BME280;39838;59.938;30.642;2023-01-25T10:54:13;100882.28;;;0.90;86.87
48926;BME280;39838;59.938;30.642;2023-01-25T10:56:43;100865.19;;;0.89;87.26
48926;BME280;39838;59.938;30.642;2023-01-25T10:59:20;100853.69;;;0.81;87.01
48926;BME280;39838;59.938;30.642;2023-01-25T11:01:49;100858.22;;;0.87;87.11
48926;BME280;39838;59.938;30.642;2023-01-25T11:04:29;100862.47;;;0.86;87.34
48926;BME280;39838;59.938;30.642;2023-01-25T11:06:57;100865.19;;;0.89;87.04
48926;BME280;39838;59.938;30.642;2023-01-25T11:09:34;100836.34;;;0.74;87.45
48926;BME280;39838;59.938;30.642;2023-01-25T11:12:04;100847.94;;;0.85;87.29
48926;BME280;39838;59.938;30.642;2023-01-25T11:14:33;100856.34;;;0.82;87.57
48926;BME280;39838;59.938;30.642;2023-01-25T11:17:02;100856.41;;;0.84;87.62
48926;BME280;39838;59.938;30.642;2023-01-25T11:19:33;100859.09;;;0.87;87.49
48926;BME280;39838;59.938;30.642;2023-01-25T11:22:02;100850.50;;;0.85;87.67
48926;BME280;39838;59.938;30.642;2023-01-25T11:24:31;100849.28;;;0.77;88.09
48926;BME280;39838;59.938;30.642;2023-01-25T11:27:17;100847.66;;;0.79;88.15
48926;BME280;39838;59.938;30.642;2023-01-25T11:29:46;100831.50;;;0.80;87.80
48926;BME280;39838;59.938;30.642;2023-01-25T11:32:32;100839.97;;;0.79;87.93
48926;BME280;39838;59.938;30.642;2023-01-25T11:34:59;100824.03;;;0.85;88.06
48926;BME280;39838;59.938;30.642;2023-01-25T11:37:36;100822.34;;;0.85;88.08
48926;BME280;39838;59.938;30.642;2023-01-25T11:40:14;100825.84;;;0.87;88.57
48926;BME280;39838;59.938;30.642;2023-01-25T11:42:56;100821.97;;;0.95;88.51
48926;BME280;39838;59.938;30.642;2023-01-25T11:45:54;100810.09;;;0.97;88.41
48926;BME280;39838;59.938;30.642;2023-01-25T11:48:43;100806.19;;;1.05;88.32
48926;BME280;39838;59.938;30.642;2023-01-25T11:51:21;100798.44;;;1.04;88.42
48926;BME280;39838;59.938;30.642;2023-01-25T11:54:04;100791.31;;;0.97;88.58
48926;BME280;39838;59.938;30.642;2023-01-25T11:56:45;100797.38;;;0.99;88.20
48926;BME280;39838;59.938;30.642;2023-01-25T11:59:25;100779.34;;;0.96;88.97
48926;BME280;39838;59.938;30.642;2023-01-25T12:02:30;100781.41;;;1.04;88.33
48926;BME280;39838;59.938;30.642;2023-01-25T12:05:16;100787.41;;;1.05;88.45
48926;BME280;39838;59.938;30.642;2023-01-25T12:07:51;100794.53;;;1.12;88.59
48926;BME280;39838;59.938;30.642;2023-01-25T12:10:31;100781.41;;;1.04;88.49
48926;BME280;39838;59.938;30.642;2023-01-25T12:13:06;100784.56;;;0.99;88.51
48926;BME280;39838;59.938;30.642;2023-01-25T12:15:54;100781.81;;;0.94;88.75
48926;BME280;39838;59.938;30.642;2023-01-25T12:18:49;100779.13;;;0.91;89.26
48926;BME280;39838;59.938;30.642;2023-01-25T12:21:31;100781.63;;;0.90;89.01
48926;BME280;39838;59.938;30.642;2023-01-25T12:24:15;100752.53;;;0.88;89.25
48926;BME280;39838;59.938;30.642;2023-01-25T12:26:55;100779.88;;;0.89;89.56
48926;BME280;39838;59.938;30.642;2023-01-25T12:29:33;100758.47;;;0.87;89.71
48926;BME280;39838;59.938;30.642;2023-01-25T12:32:07;100778.09;;;0.88;89.49
48926;BME280;39838;59.938;30.642;2023-01-25T12:34:38;100723.63;;;0.69;89.70
48926;BME280;39838;59.938;30.642;2023-01-25T12:37:14;100732.97;;;0.69;90.03
48926;BME280;39838;59.938;30.642;2023-01-25T12:39:47;100757.19;;;0.77;90.57
48926;BME280;39838;59.938;30.642;2023-01-25T12:42:19;100726.25;;;0.71;90.33
48926;BME280;39838;59.938;30.642;2023-01-25T12:44:52;100713.72;;;0.58;90.27
48926;BME280;39838;59.938;30.642;2023-01-25T12:47:28;100739.25;;;0.75;90.84
48926;BME280;39838;59.938;30.642;2023-01-25T12:53:04;100715.47;;;0.59;90.72
48926;BME280;39838;59.938;30.642;2023-01-25T12:55:44;100727.16;;;0.73;90.88
48926;BME280;39838;59.938;30.642;2023-01-25T12:58:20;100713.34;;;0.68;91.22
48926;BME280;39838;59.938;30.642;2023-01-25T13:00:59;100701.88;;;0.60;91.16
48926;BME280;39838;59.938;30.642;2023-01-25T13:03:50;100731.56;;;0.75;90.79
48926;BME280;39838;59.938;30.642;2023-01-25T13:06:36;100719.31;;;0.68;90.97